Time;durP1;ratioP1;P1;durP2;ratioP2;P2;SDS_P1;SDS_P2;PMS_P1;PMS_P2;Temp;Humidity;BMP_temperature;BMP_pressure;BME280_temperature;BME280_humidity;BME280_pressure;Samples;Min_cycle;Max_cycle;Signal;HPM_P1;HPM_P2
2022/07/06 20:33:39;;;;;;;;;;;;;;;16.29;46.43;100976.91;1632921;84;20195;-76
2022/07/06 20:36:07;;;;;;;;;;;;;;;16.26;46.51;100982.69;1651449;86;20226;-76
2022/07/06 20:38:33;;;;;;;;;;;;;;;16.26;46.57;100980.00;1653116;86;21108;-78
2022/07/06 20:40:59;;;;;;;;;;;;;;;16.26;46.62;100981.84;1652799;86;20410;-75
2022/07/06 20:43:24;;;;;;;;;;;;;;;16.26;46.65;100985.38;1646734;86;20196;-76
2022/07/06 20:45:50;;;;;;;;;;;;;;;16.25;46.68;100988.28;1650251;85;20192;-77
2022/07/06 20:48:16;;;;;;;;;;;;;;;16.21;46.77;100987.83;1634757;86;20808;-75
2022/07/06 20:50:42;;;;;;;;;;;;;;;16.18;46.87;100988.22;1641287;86;20995;-76
2022/07/06 20:53:07;;;;;;;;;;;;;;;16.16;46.94;100993.45;1641958;86;20293;-76
2022/07/06 20:55:33;;;;;;;;;;;;;;;16.11;47.03;100995.39;1632175;86;20218;-76
2022/07/06 20:57:59;;;;;;;;;;;;;;;16.09;47.12;100986.66;1636401;86;20646;-76
2022/07/06 21:00:25;;;;;;;;;;;;;;;16.08;47.18;100984.18;1632677;86;20277;-76
2022/07/06 21:02:51;;;;;;;;;;;;;;;16.05;47.24;100974.61;1651996;86;21127;-76
2022/07/06 21:05:16;;;;;;;;;;;;;;;16.04;47.28;100981.04;1641719;86;20202;-76
2022/07/06 21:07:42;;;;;;;;;;;;;;;16.03;47.35;100980.70;1645512;86;20327;-77
2022/07/06 21:10:09;;;;;;;;;;;;;;;16.00;47.45;100977.05;1633093;86;20769;-76
2022/07/06 21:12:35;;;;;;;;;;;;;;;15.98;47.51;100979.09;1632884;86;20155;-76
2022/07/06 21:15:00;;;;;;;;;;;;;;;15.94;47.58;100976.45;1636450;86;20739;-76
2022/07/06 21:17:27;;;;;;;;;;;;;;;15.93;47.64;100980.19;1632251;86;20806;-76
2022/07/06 21:19:53;;;;;;;;;;;;;;;15.92;47.71;100982.55;1636929;85;20209;-76
2022/07/06 21:22:19;;;;;;;;;;;;;;;15.89;47.78;100975.70;1632769;86;20239;-76
2022/07/06 21:24:45;;;;;;;;;;;;;;;15.89;47.83;100976.20;1636103;86;20242;-76
2022/07/06 21:27:10;;;;;;;;;;;;;;;15.88;47.89;100969.16;1633537;86;21722;-76
2022/07/06 21:29:36;;;;;;;;;;;;;;;15.88;47.92;100969.16;1632925;85;20179;-76
2022/07/06 21:32:02;;;;;;;;;;;;;;;15.86;47.97;100970.70;1637160;86;20259;-76
2022/07/06 21:34:29;;;;;;;;;;;;;;;15.86;47.98;100965.33;1637988;85;20207;-76
2022/07/06 21:36:56;;;;;;;;;;;;;;;15.86;48.02;100972.55;1642395;86;20633;-76
2022/07/06 21:39:22;;;;;;;;;;;;;;;15.85;48.02;100968.19;1648290;86;21246;-76
2022/07/06 21:41:48;;;;;;;;;;;;;;;15.84;48.03;100969.20;1655782;86;20209;-76
2022/07/06 21:44:14;;;;;;;;;;;;;;;15.84;48.04;100969.20;1655308;86;20187;-76
2022/07/06 21:46:40;;;;;;;;;;;;;;;15.83;48.09;100982.36;1640581;86;20171;-76
2022/07/06 21:49:06;;;;;;;;;;;;;;;15.79;48.17;100982.41;1600016;89;20218;-76
2022/07/06 21:51:31;;;;;;;;;;;;;;;15.73;48.36;100979.11;1598066;89;21844;-76
2022/07/06 21:53:57;;;;;;;;;;;;;;;15.69;48.49;100977.84;1597967;89;20211;-76
2022/07/06 21:56:23;;;;;;;;;;;;;;;15.69;48.59;100977.84;1597956;89;20191;-76
2022/07/06 21:58:49;;;;;;;;;;;;;;;15.69;48.66;100976.50;1605050;87;20458;-76
2022/07/06 22:01:15;;;;;;;;;;;;;;;15.68;48.68;100972.97;1603856;87;20191;-76
2022/07/06 22:03:41;;;;;;;;;;;;;;;15.65;48.70;100974.70;1612270;88;21291;-76
2022/07/06 22:06:06;;;;;;;;;;;;;;;15.62;48.78;100972.90;1612070;88;20280;-76
2022/07/06 22:08:32;;;;;;;;;;;;;;;15.58;48.89;100968.91;1612113;88;20243;-76
2022/07/06 22:10:58;;;;;;;;;;;;;;;15.54;48.97;100966.27;1612234;88;20287;-77
2022/07/06 22:13:42;;;;;;;;;;;;;;;15.43;49.12;100963.52;1611599;89;20169;-76
2022/07/06 22:16:12;;;;;;;;;;;;;;;15.35;49.28;100959.08;1611462;88;21119;-76
2022/07/06 22:18:40;;;;;;;;;;;;;;;15.29;49.40;100959.84;1611346;89;20173;-76
2022/07/06 22:21:08;;;;;;;;;;;;;;;15.19;49.52;100959.30;1610555;89;20189;-76
2022/07/06 22:23:34;;;;;;;;;;;;;;;15.13;49.66;100962.70;1611639;89;20193;-76
2022/07/06 22:26:00;;;;;;;;;;;;;;;15.05;49.77;100957.44;1606152;89;20169;-76
2022/07/06 22:28:25;;;;;;;;;;;;;;;14.93;49.90;100959.74;1598880;89;21921;-76
2022/07/06 22:30:51;;;;;;;;;;;;;;;14.83;50.06;100951.13;1598811;89;20207;-76
2022/07/06 22:33:17;;;;;;;;;;;;;;;14.72;50.17;100950.23;1625693;88;20206;-76
2022/07/06 22:35:43;;;;;;;;;;;;;;;14.62;50.31;100952.34;1598797;89;20160;-75
2022/07/06 22:38:08;;;;;;;;;;;;;;;14.54;50.43;100948.39;1598162;89;20171;-76
2022/07/06 22:43:18;;;;;;;;;;;;;;;14.33;50.69;100941.00;1603298;89;20520;-76
2022/07/06 22:45:44;;;;;;;;;;;;;;;14.23;50.86;100939.58;1598325;89;20267;-76
2022/07/06 22:48:10;;;;;;;;;;;;;;;14.14;51.01;100942.85;1597627;89;20168;-76
2022/07/06 22:50:36;;;;;;;;;;;;;;;14.04;51.15;100936.87;1598787;87;21055;-77
2022/07/06 22:53:02;;;;;;;;;;;;;;;13.98;51.26;100944.30;1602635;89;21196;-77
2022/07/06 22:55:28;;;;;;;;;;;;;;;13.91;51.37;100944.68;1594512;89;20203;-76
2022/07/06 22:57:53;;;;;;;;;;;;;;;13.83;51.51;100940.70;1598302;89;20279;-76
2022/07/06 23:00:19;;;;;;;;;;;;;;;13.74;51.64;100941.28;1598804;87;20426;-76
2022/07/06 23:02:45;;;;;;;;;;;;;;;13.67;51.77;100942.16;1598482;89;20190;-76
2022/07/06 23:05:11;;;;;;;;;;;;;;;13.56;51.92;100943.89;1597777;89;21189;-76
2022/07/06 23:07:37;;;;;;;;;;;;;;;13.46;52.08;100944.95;1597754;89;20211;-76
2022/07/06 23:10:05;;;;;;;;;;;;;;;13.39;52.20;100946.66;1625018;88;20165;-76
2022/07/06 23:12:31;;;;;;;;;;;;;;;13.33;52.33;100944.69;1624885;88;20164;-76
2022/07/06 23:14:56;;;;;;;;;;;;;;;13.28;52.41;100941.69;1624963;86;20298;-76
2022/07/06 23:17:23;;;;;;;;;;;;;;;13.21;52.53;100942.05;1638279;87;21167;-75
2022/07/06 23:19:48;;;;;;;;;;;;;;;13.14;52.65;100938.39;1635521;87;20167;-76
2022/07/06 23:22:14;;;;;;;;;;;;;;;13.05;52.79;100938.08;1631607;87;20257;-75
2022/07/06 23:24:40;;;;;;;;;;;;;;;12.99;52.93;100937.41;1638625;87;20222;-76
2022/07/06 23:27:06;;;;;;;;;;;;;;;12.89;53.11;100932.75;1638315;87;20810;-76
2022/07/06 23:29:32;;;;;;;;;;;;;;;12.83;53.28;100938.80;1638218;87;21196;-75
2022/07/06 23:31:57;;;;;;;;;;;;;;;12.78;53.43;100942.48;1638474;87;20185;-75
2022/07/06 23:34:24;;;;;;;;;;;;;;;12.71;53.56;100937.48;1636576;87;20205;-75
2022/07/06 23:36:49;;;;;;;;;;;;;;;12.63;53.70;100935.65;1655355;85;20172;-76
2022/07/06 23:39:15;;;;;;;;;;;;;;;12.55;53.79;100934.84;1647366;85;20162;-76
2022/07/06 23:41:41;;;;;;;;;;;;;;;12.48;53.88;100936.87;1606335;89;21136;-75
2022/07/06 23:44:07;;;;;;;;;;;;;;;12.41;54.00;100941.72;1655240;86;20188;-75
2022/07/06 23:46:32;;;;;;;;;;;;;;;12.35;54.10;100945.88;1655445;86;20295;-76
2022/07/06 23:48:58;;;;;;;;;;;;;;;12.30;54.22;100936.20;1655320;86;20173;-75
2022/07/06 23:51:26;;;;;;;;;;;;;;;12.22;54.31;100942.88;1655516;86;20232;-74
2022/07/06 23:53:52;;;;;;;;;;;;;;;12.19;54.43;100945.89;1655393;86;21246;-76
2022/07/06 23:56:17;;;;;;;;;;;;;;;12.12;54.53;100938.20;1654935;85;20252;-75
2022/07/06 23:58:43;;;;;;;;;;;;;;;12.09;54.70;100937.20;1655313;86;20319;-76
